Time;durP1;ratioP1;P1;durP2;ratioP2;P2;SDS_P1;SDS_P2;PMS_P1;PMS_P2;Temp;Humidity;BMP_temperature;BMP_pressure;BME280_temperature;BME280_humidity;BME280_pressure;Samples;Min_cycle;Max_cycle;Signal;HPM_P1;HPM_P2
2021/09/03 00:07:39;;;;;;;9.20;6.00;;;14.80;99.90;;;;;;6679644;88;20662;-77
2021/09/03 00:17:40;;;;;;;10.00;6.35;;;14.60;99.90;;;;;;6692654;88;20670;-77
2021/09/03 00:27:41;;;;;;;8.80;5.85;;;14.50;99.90;;;;;;6697300;88;20218;-77
2021/09/03 00:37:41;;;;;;;10.63;6.40;;;14.50;99.90;;;;;;6699442;88;20202;-77
2021/09/03 00:47:43;;;;;;;9.98;6.50;;;14.30;99.90;;;;;;6699901;88;20211;-78
2021/09/03 00:57:44;;;;;;;9.35;5.90;;;14.30;99.90;;;;;;6697283;88;20240;-75
2021/09/03 01:07:45;;;;;;;9.68;5.90;;;14.10;99.90;;;;;;6696032;88;20367;-78
2021/09/03 01:17:45;;;;;;;12.55;6.55;;;14.10;99.90;;;;;;6700016;88;20221;-77
2021/09/03 01:27:46;;;;;;;10.85;5.90;;;14.20;99.90;;;;;;6699715;88;20187;-77
2021/09/03 01:37:46;;;;;;;9.60;6.03;;;14.10;99.90;;;;;;6698175;88;20231;-77
2021/09/03 01:47:47;;;;;;;9.65;6.03;;;14.20;99.90;;;;;;6700076;88;20214;-78
2021/09/03 01:57:47;;;;;;;9.50;5.85;;;13.90;99.90;;;;;;6700769;88;20214;-77
2021/09/03 02:07:48;;;;;;;9.40;6.20;;;13.80;99.90;;;;;;6700471;88;20273;-78
2021/09/03 02:17:48;;;;;;;11.38;5.72;;;13.70;99.90;;;;;;6698064;88;20548;-78
2021/09/03 02:27:49;;;;;;;11.57;6.28;;;13.60;99.90;;;;;;6700102;88;20208;-78
2021/09/03 02:37:49;;;;;;;8.95;6.07;;;13.40;99.90;;;;;;6700238;88;20222;-77
2021/09/03 02:47:50;;;;;;;10.32;6.62;;;13.30;99.90;;;;;;6700500;88;20281;-77
2021/09/03 02:57:51;;;;;;;11.30;6.68;;;13.40;99.90;;;;;;6700386;88;20216;-77
2021/09/03 03:07:51;;;;;;;13.18;6.50;;;13.20;99.90;;;;;;6700163;88;20220;-77
2021/09/03 03:17:52;;;;;;;10.00;6.20;;;13.10;99.90;;;;;;6699625;88;20220;-78
2021/09/03 03:27:52;;;;;;;10.48;6.68;;;13.00;99.90;;;;;;6697818;88;20210;-77
2021/09/03 03:37:53;;;;;;;11.75;6.95;;;12.90;99.90;;;;;;6700092;88;20923;-78
2021/09/03 03:47:54;;;;;;;10.00;6.93;;;12.90;99.90;;;;;;6702318;88;20212;-78
2021/09/03 03:57:54;;;;;;;9.60;6.25;;;12.90;99.90;;;;;;6702528;88;20204;-78
2021/09/03 04:07:55;;;;;;;10.52;6.62;;;12.80;99.90;;;;;;6701312;88;20208;-78
2021/09/03 04:17:55;;;;;;;12.68;7.30;;;12.70;99.90;;;;;;6699453;88;20191;-76
2021/09/03 04:27:56;;;;;;;11.02;6.65;;;12.80;99.90;;;;;;6702617;88;20255;-77
2021/09/03 04:37:56;;;;;;;13.43;6.80;;;12.60;99.90;;;;;;6701908;88;21087;-78
2021/09/03 04:47:57;;;;;;;9.60;6.32;;;12.40;99.90;;;;;;6702262;88;20204;-78
2021/09/03 04:57:58;;;;;;;10.40;6.25;;;12.30;99.90;;;;;;6699848;88;20258;-76
2021/09/03 05:07:59;;;;;;;13.32;6.78;;;12.10;99.90;;;;;;6698583;88;20347;-76
2021/09/03 05:17:59;;;;;;;10.50;6.37;;;12.20;99.90;;;;;;6699216;88;20282;-75
2021/09/03 05:28:00;;;;;;;13.15;6.93;;;12.10;99.90;;;;;;6699992;88;20198;-75
2021/09/03 05:38:06;;;;;;;13.75;7.68;;;12.30;99.90;;;;;;6695283;88;20200;-75
2021/09/03 05:48:06;;;;;;;14.30;8.23;;;12.30;99.90;;;;;;6697076;88;20178;-75
2021/09/03 05:58:07;;;;;;;21.27;9.70;;;12.40;99.90;;;;;;6696940;88;20626;-75
2021/09/03 06:08:08;;;;;;;23.52;10.40;;;12.40;99.90;;;;;;6698492;88;20291;-75
2021/09/03 06:18:08;;;;;;;22.65;10.88;;;12.70;99.90;;;;;;6693936;88;20313;-75
2021/09/03 06:28:09;;;;;;;25.67;12.52;;;12.80;99.90;;;;;;6699918;88;20259;-76
2021/09/03 06:38:09;;;;;;;23.17;11.80;;;13.10;99.90;;;;;;6699226;88;20780;-76
2021/09/03 06:48:10;;;;;;;18.48;10.93;;;13.50;99.90;;;;;;6696920;88;20225;-77
2021/09/03 06:58:10;;;;;;;25.40;12.93;;;13.90;99.90;;;;;;6692264;88;20824;-76
2021/09/03 07:08:11;;;;;;;17.77;10.43;;;14.50;99.90;;;;;;6695215;88;20700;-74
2021/09/03 07:18:11;;;;;;;21.65;11.88;;;15.00;99.90;;;;;;6692114;88;20223;-75
2021/09/03 07:28:12;;;;;;;19.12;10.32;;;15.40;99.90;;;;;;6691426;88;20230;-76
2021/09/03 07:38:13;;;;;;;31.30;10.27;;;15.80;99.90;;;;;;6693037;88;20190;-76
2021/09/03 07:48:13;;;;;;;13.55;8.55;;;16.90;99.90;;;;;;6696332;88;20256;-76
2021/09/03 07:58:14;;;;;;;12.13;7.62;;;18.10;99.90;;;;;;6694321;88;20227;-75
2021/09/03 08:08:15;;;;;;;11.70;7.10;;;19.00;99.90;;;;;;6698134;88;20191;-76
2021/09/03 08:18:15;;;;;;;10.48;6.40;;;19.50;99.90;;;;;;6696847;88;20191;-75
2021/09/03 08:28:16;;;;;;;9.68;6.07;;;19.80;99.90;;;;;;6696353;88;20265;-77
2021/09/03 08:38:17;;;;;;;9.35;5.53;;;20.80;99.90;;;;;;6697752;88;20327;-76
2021/09/03 08:48:19;;;;;;;9.45;5.25;;;21.20;99.90;;;;;;6699483;88;20194;-76
2021/09/03 08:58:21;;;;;;;7.87;5.25;;;22.40;99.90;;;;;;6698756;88;20179;-77
2021/09/03 09:08:24;;;;;;;10.00;5.37;;;23.40;99.90;;;;;;6698620;88;20246;-75
2021/09/03 09:18:54;;;;;;;7.97;5.53;;;23.80;99.90;;;;;;6700654;88;20328;-76
2021/09/03 09:28:56;;;;;;;7.47;5.50;;;25.50;99.90;;;;;;6698221;88;20331;-77
2021/09/03 09:38:58;;;;;;;9.27;5.80;;;26.40;99.90;;;;;;6691733;88;20204;-76
2021/09/03 09:49:05;;;;;;;6.53;5.07;;;26.90;99.90;;;;;;6698630;88;20315;-75
2021/09/03 09:59:07;;;;;;;8.98;5.40;;;25.90;99.90;;;;;;6697471;88;20770;-77
2021/09/03 10:09:11;;;;;;;7.13;4.73;;;26.20;99.90;;;;;;6698060;88;20556;-77
2021/09/03 10:19:15;;;;;;;10.65;4.90;;;27.40;98.60;;;;;;6699224;88;20221;-76
2021/09/03 10:29:25;;;;;;;6.65;4.47;;;26.60;97.80;;;;;;6695528;88;20263;-77
2021/09/03 10:39:25;;;;;;;6.65;4.43;;;27.70;97.70;;;;;;6696461;88;20220;-78
2021/09/03 10:49:27;;;;;;;6.65;4.20;;;27.10;96.60;;;;;;6700721;88;20293;-78
2021/09/03 10:59:27;;;;;;;6.87;4.43;;;28.60;95.60;;;;;;6700585;88;20204;-75
2021/09/03 11:09:29;;;;;;;7.45;4.10;;;30.40;93.90;;;;;;6696777;88;20379;-75
2021/09/03 11:19:40;;;;;;;6.20;4.40;;;29.70;93.10;;;;;;6697398;88;20670;-76
2021/09/03 11:29:47;;;;;;;5.28;3.80;;;29.50;91.70;;;;;;6691865;88;20399;-76
2021/09/03 11:39:48;;;;;;;6.75;3.72;;;27.90;91.20;;;;;;6692321;88;20200;-77
2021/09/03 11:49:50;;;;;;;5.65;3.85;;;28.90;90.20;;;;;;6694576;88;20705;-76
2021/09/03 11:59:56;;;;;;;5.43;3.70;;;28.20;90.20;;;;;;6688522;88;20758;-75
2021/09/03 12:09:57;;;;;;;6.12;4.00;;;28.40;90.60;;;;;;6696416;88;20599;-77
2021/09/03 12:20:15;;;;;;;5.50;3.70;;;29.10;90.20;;;;;;6696950;88;20273;-76
2021/09/03 12:30:16;;;;;;;5.18;3.55;;;29.20;87.00;;;;;;6696199;88;20194;-77
2021/09/03 12:40:20;;;;;;;5.77;3.77;;;30.70;85.00;;;;;;6694547;88;20219;-77
2021/09/03 12:50:21;;;;;;;5.32;4.00;;;31.80;84.20;;;;;;6697558;88;20228;-76
2021/09/03 13:00:22;;;;;;;5.55;3.72;;;33.30;78.40;;;;;;6696390;88;20190;-75
2021/09/03 13:10:22;;;;;;;6.50;3.92;;;32.70;76.50;;;;;;6696671;88;20221;-77
2021/09/03 13:20:23;;;;;;;4.78;3.58;;;31.60;79.20;;;;;;6699348;88;20194;-77
2021/09/03 13:30:24;;;;;;;7.17;3.77;;;32.70;77.40;;;;;;6696170;88;20331;-76
2021/09/03 13:40:24;;;;;;;7.97;3.63;;;33.20;72.90;;;;;;6696199;88;20512;-76
2021/09/03 13:50:25;;;;;;;5.35;3.83;;;31.50;76.70;;;;;;6696587;88;20207;-76
2021/09/03 14:00:25;;;;;;;7.03;3.87;;;32.30;73.60;;;;;;6696649;88;20684;-77
2021/09/03 14:10:26;;;;;;;6.25;3.90;;;32.00;73.50;;;;;;6696743;88;20328;-76
2021/09/03 14:20:26;;;;;;;7.50;3.50;;;33.30;71.90;;;;;;6696296;88;20190;-76
2021/09/03 14:30:27;;;;;;;4.77;3.77;;;32.70;71.70;;;;;;6696610;88;20199;-74
2021/09/03 14:40:28;;;;;;;8.03;3.93;;;30.70;72.70;;;;;;6692686;88;20662;-75
2021/09/03 14:50:29;;;;;;;5.93;3.67;;;31.50;73.50;;;;;;6696869;88;20345;-77
2021/09/03 15:00:30;;;;;;;;;;;31.90;72.00;;;;;;6696251;88;20202;-75
2021/09/03 15:10:31;;;;;;;5.57;3.70;;;31.70;71.70;;;;;;6695568;88;20129;-76
2021/09/03 15:20:32;;;;;;;5.57;3.93;;;30.60;73.80;;;;;;6695421;88;20843;-75
2021/09/03 15:30:32;;;;;;;7.25;3.80;;;30.80;72.70;;;;;;6695620;88;20348;-75
2021/09/03 15:40:33;;;;;;;6.20;3.95;;;29.70;76.20;;;;;;6698183;88;20241;-76
2021/09/03 15:50:33;;;;;;;7.07;3.20;;;29.10;73.60;;;;;;6700506;88;20205;-74
2021/09/03 16:00:35;;;;;;;5.60;3.47;;;29.40;74.00;;;;;;6698326;88;20201;-76
2021/09/03 16:10:35;;;;;;;5.33;3.50;;;29.50;73.60;;;;;;6699478;88;20212;-75
2021/09/03 16:20:36;;;;;;;7.10;3.62;;;29.50;73.00;;;;;;6698957;88;20189;-74
2021/09/03 16:30:36;;;;;;;6.32;3.80;;;28.20;76.10;;;;;;6698654;88;20197;-76
2021/09/03 16:40:37;;;;;;;6.70;3.43;;;28.10;74.60;;;;;;6698218;88;20206;-75
2021/09/03 16:50:40;;;;;;;5.85;3.10;;;27.70;75.00;;;;;;6697732;88;20692;-74
2021/09/03 17:00:41;;;;;;;6.87;4.07;;;27.50;75.00;;;;;;6697456;88;20198;-75
2021/09/03 17:10:41;;;;;;;11.68;5.30;;;27.20;74.60;;;;;;6697400;88;20295;-76
2021/09/03 17:20:42;;;;;;;5.30;3.50;;;26.90;75.70;;;;;;6697181;88;20599;-75
2021/09/03 17:30:42;;;;;;;6.30;3.58;;;26.30;77.50;;;;;;6696823;88;20258;-75
2021/09/03 17:40:43;;;;;;;6.30;3.67;;;25.80;80.60;;;;;;6697047;88;20238;-75
2021/09/03 17:50:44;;;;;;;9.68;4.37;;;25.40;83.80;;;;;;6699506;88;20216;-75
2021/09/03 18:00:44;;;;;;;10.60;7.00;;;24.70;87.80;;;;;;6693403;88;20215;-76
2021/09/03 18:10:45;;;;;;;10.68;6.22;;;23.90;90.20;;;;;;6697640;88;20197;-75
2021/09/03 18:20:46;;;;;;;11.15;6.22;;;23.30;92.10;;;;;;6696096;88;20286;-75
2021/09/03 18:30:47;;;;;;;10.13;5.18;;;23.00;93.80;;;;;;6678769;88;20210;-75
2021/09/03 18:40:47;;;;;;;7.72;5.20;;;22.40;96.70;;;;;;6687946;77;20356;-77
2021/09/03 18:50:49;;;;;;;16.95;10.50;;;21.70;99.60;;;;;;6689674;88;20210;-76
2021/09/03 19:00:50;;;;;;;10.82;6.03;;;21.40;99.90;;;;;;6682123;88;20652;-77
2021/09/03 19:10:51;;;;;;;9.77;5.53;;;21.10;99.90;;;;;;6681738;88;20217;-76
2021/09/03 19:20:51;;;;;;;11.43;7.35;;;20.60;99.90;;;;;;6682496;88;20322;-76
2021/09/03 19:30:52;;;;;;;20.00;9.43;;;20.30;99.90;;;;;;6683458;89;20606;-76
2021/09/03 19:40:52;;;;;;;15.32;9.80;;;20.10;99.90;;;;;;6682191;89;20246;-76
2021/09/03 19:50:53;;;;;;;13.98;8.70;;;19.80;99.90;;;;;;6681896;89;20233;-76
2021/09/03 20:00:53;;;;;;;13.75;8.25;;;19.60;99.90;;;;;;6687307;88;20208;-76
2021/09/03 20:10:54;;;;;;;12.32;7.62;;;19.50;99.90;;;;;;6698886;88;20240;-76
2021/09/03 20:20:54;;;;;;;15.27;8.38;;;19.30;99.90;;;;;;6698913;88;20386;-77
2021/09/03 20:30:55;;;;;;;10.75;7.25;;;19.20;99.90;;;;;;6701951;88;20202;-76
2021/09/03 20:40:55;;;;;;;12.15;7.40;;;18.80;99.90;;;;;;6701802;88;20217;-76
2021/09/03 20:50:56;;;;;;;16.25;9.10;;;18.70;99.90;;;;;;6701332;88;20933;-76
2021/09/03 21:00:56;;;;;;;15.43;9.15;;;18.40;99.90;;;;;;6701751;88;20321;-76
2021/09/03 21:10:57;;;;;;;13.90;9.13;;;18.20;99.90;;;;;;6701955;88;20313;-77
2021/09/03 21:20:58;;;;;;;14.25;8.70;;;18.00;99.90;;;;;;6699580;88;20190;-77
2021/09/03 21:30:58;;;;;;;14.48;9.02;;;17.70;99.90;;;;;;6698200;88;20198;-77
2021/09/03 21:40:59;;;;;;;13.62;8.68;;;17.70;99.90;;;;;;6690299;88;20629;-76
2021/09/03 21:50:59;;;;;;;15.90;8.05;;;17.70;99.90;;;;;;6693405;88;20180;-76
2021/09/03 22:01:00;;;;;;;11.93;7.50;;;17.60;99.90;;;;;;6696019;88;20731;-76
2021/09/03 22:11:01;;;;;;;10.35;6.97;;;17.10;99.90;;;;;;6695948;88;20273;-76
2021/09/03 22:21:02;;;;;;;10.23;6.82;;;16.90;99.90;;;;;;6685889;88;20225;-76
2021/09/03 22:31:02;;;;;;;11.38;7.80;;;16.90;99.90;;;;;;6699042;88;20177;-76
2021/09/03 22:41:03;;;;;;;13.25;7.37;;;16.80;99.90;;;;;;6700321;88;20212;-76
2021/09/03 22:51:03;;;;;;;17.67;7.12;;;16.70;99.90;;;;;;6699990;88;20339;-76
2021/09/03 23:01:04;;;;;;;11.00;7.40;;;16.70;99.90;;;;;;6698942;88;20209;-76
2021/09/03 23:11:04;;;;;;;11.80;7.70;;;16.40;99.90;;;;;;6700151;88;20205;-76
2021/09/03 23:21:05;;;;;;;11.85;7.10;;;16.20;99.90;;;;;;6698675;88;20219;-76
2021/09/03 23:31:05;;;;;;;11.75;7.70;;;16.00;99.90;;;;;;6699411;88;20194;-76
2021/09/03 23:41:06;;;;;;;11.55;6.87;;;16.10;99.90;;;;;;6700113;88;20610;-75
2021/09/03 23:51:07;;;;;;;11.87;7.10;;;16.00;99.90;;;;;;6700226;88;20226;-75
